sensor_id;sensor_type;location;lat;lon;timestamp;temperature;humidity
66568;DHT22;53422;49.296;6.900;2023-04-03T00:01:10;5.60;99.90
66568;DHT22;53422;49.296;6.900;2023-04-03T00:03:36;5.60;99.90
66568;DHT22;53422;49.296;6.900;2023-04-03T00:06:03;5.70;99.90
66568;DHT22;53422;49.296;6.900;2023-04-03T00:08:29;5.50;99.90
66568;DHT22;53422;49.296;6.900;2023-04-03T00:10:56;5.60;99.90
66568;DHT22;53422;49.296;6.900;2023-04-03T00:13:22;5.70;99.90
66568;DHT22;53422;49.296;6.900;2023-04-03T00:15:48;5.50;99.90
66568;DHT22;53422;49.296;6.900;2023-04-03T00:18:14;5.70;99.90
66568;DHT22;53422;49.296;6.900;2023-04-03T00:20:40;5.70;99.90
66568;DHT22;53422;49.296;6.900;2023-04-03T00:23:06;5.80;99.90
66568;DHT22;53422;49.296;6.900;2023-04-03T00:25:32;5.70;99.90
66568;DHT22;53422;49.296;6.900;2023-04-03T00:27:57;5.70;99.90
66568;DHT22;53422;49.296;6.900;2023-04-03T00:30:23;5.60;99.90
66568;DHT22;53422;49.296;6.900;2023-04-03T00:32:50;5.50;99.90
66568;DHT22;53422;49.296;6.900;2023-04-03T00:35:16;5.60;99.90
66568;DHT22;53422;49.296;6.900;2023-04-03T00:37:42;5.60;99.90
66568;DHT22;53422;49.296;6.900;2023-04-03T00:40:09;5.40;99.90
66568;DHT22;53422;49.296;6.900;2023-04-03T00:42:36;5.40;99.90
66568;DHT22;53422;49.296;6.900;2023-04-03T00:47:29;5.50;99.90
66568;DHT22;53422;49.296;6.900;2023-04-03T00:49:56;5.30;99.90
66568;DHT22;53422;49.296;6.900;2023-04-03T00:52:25;5.30;99.90
66568;DHT22;53422;49.296;6.900;2023-04-03T00:54:52;5.40;99.90
66568;DHT22;53422;49.296;6.900;2023-04-03T00:57:21;5.50;99.90
66568;DHT22;53422;49.296;6.900;2023-04-03T00:59:52;5.40;99.90
66568;DHT22;53422;49.296;6.900;2023-04-03T01:02:19;5.50;99.90
66568;DHT22;53422;49.296;6.900;2023-04-03T01:04:44;5.50;99.90
66568;DHT22;53422;49.296;6.900;2023-04-03T01:07:27;5.50;99.90
66568;DHT22;53422;49.296;6.900;2023-04-03T01:09:57;5.50;99.90
66568;DHT22;53422;49.296;6.900;2023-04-03T01:15:03;5.30;99.90
66568;DHT22;53422;49.296;6.900;2023-04-03T01:17:41;5.40;99.90
66568;DHT22;53422;49.296;6.900;2023-04-03T01:25:32;5.50;99.90
66568;DHT22;53422;49.296;6.900;2023-04-03T01:27:58;5.40;99.90
66568;DHT22;53422;49.296;6.900;2023-04-03T01:30:28;5.30;99.90
66568;DHT22;53422;49.296;6.900;2023-04-03T01:32:56;5.30;99.90
66568;DHT22;53422;49.296;6.900;2023-04-03T01:35:21;5.40;99.90
66568;DHT22;53422;49.296;6.900;2023-04-03T01:37:47;5.30;99.90
66568;DHT22;53422;49.296;6.900;2023-04-03T01:40:13;5.30;99.90
66568;DHT22;53422;49.296;6.900;2023-04-03T01:42:38;5.30;99.90
66568;DHT22;53422;49.296;6.900;2023-04-03T01:45:04;5.30;99.90
66568;DHT22;53422;49.296;6.900;2023-04-03T01:47:30;5.20;99.90
66568;DHT22;53422;49.296;6.900;2023-04-03T01:49:56;5.40;99.90
66568;DHT22;53422;49.296;6.900;2023-04-03T01:52:21;5.40;99.90
66568;DHT22;53422;49.296;6.900;2023-04-03T01:54:47;5.40;99.90
66568;DHT22;53422;49.296;6.900;2023-04-03T01:57:12;5.50;99.90
66568;DHT22;53422;49.296;6.900;2023-04-03T01:59:40;5.50;99.90
66568;DHT22;53422;49.296;6.900;2023-04-03T02:02:06;5.40;99.90
66568;DHT22;53422;49.296;6.900;2023-04-03T02:04:31;5.60;99.90
66568;DHT22;53422;49.296;6.900;2023-04-03T02:06:57;5.60;99.90
66568;DHT22;53422;49.296;6.900;2023-04-03T02:09:23;5.60;99.90
66568;DHT22;53422;49.296;6.900;2023-04-03T02:11:48;5.70;99.90
66568;DHT22;53422;49.296;6.900;2023-04-03T02:14:14;5.70;99.90
66568;DHT22;53422;49.296;6.900;2023-04-03T02:16:40;5.70;99.90
66568;DHT22;53422;49.296;6.900;2023-04-03T02:19:06;5.70;99.90
66568;DHT22;53422;49.296;6.900;2023-04-03T02:21:31;5.70;99.90
66568;DHT22;53422;49.296;6.900;2023-04-03T02:23:57;5.70;99.90
66568;DHT22;53422;49.296;6.900;2023-04-03T02:26:23;5.70;99.90
66568;DHT22;53422;49.296;6.900;2023-04-03T02:28:48;5.60;99.90
66568;DHT22;53422;49.296;6.900;2023-04-03T02:31:14;5.60;99.90
66568;DHT22;53422;49.296;6.900;2023-04-03T02:33:40;5.70;99.90
66568;DHT22;53422;49.296;6.900;2023-04-03T02:36:07;5.60;99.90
66568;DHT22;53422;49.296;6.900;2023-04-03T02:38:33;5.60;99.90
66568;DHT22;53422;49.296;6.900;2023-04-03T02:41:03;5.60;99.90
66568;DHT22;53422;49.296;6.900;2023-04-03T02:43:29;5.60;99.90
66568;DHT22;53422;49.296;6.900;2023-04-03T02:45:55;5.70;99.90
66568;DHT22;53422;49.296;6.900;2023-04-03T02:48:21;5.70;99.90
66568;DHT22;53422;49.296;6.900;2023-04-03T02:50:47;5.70;99.90
66568;DHT22;53422;49.296;6.900;2023-04-03T02:53:13;5.70;99.90
66568;DHT22;53422;49.296;6.900;2023-04-03T02:55:38;5.70;99.90
66568;DHT22;53422;49.296;6.900;2023-04-03T02:58:04;5.70;99.90
66568;DHT22;53422;49.296;6.900;2023-04-03T03:00:30;5.70;99.90
66568;DHT22;53422;49.296;6.900;2023-04-03T03:02:56;5.70;99.90
66568;DHT22;53422;49.296;6.900;2023-04-03T03:05:21;5.70;99.90
66568;DHT22;53422;49.296;6.900;2023-04-03T03:07:47;5.70;99.90
66568;DHT22;53422;49.296;6.900;2023-04-03T03:10:13;5.70;99.90
66568;DHT22;53422;49.296;6.900;2023-04-03T03:12:39;5.70;99.90
66568;DHT22;53422;49.296;6.900;2023-04-03T03:15:06;5.60;99.90
66568;DHT22;53422;49.296;6.900;2023-04-03T03:17:32;5.50;99.90
66568;DHT22;53422;49.296;6.900;2023-04-03T03:19:58;5.30;99.90
66568;DHT22;53422;49.296;6.900;2023-04-03T03:22:23;5.20;99.90
66568;DHT22;53422;49.296;6.900;2023-04-03T03:24:49;5.20;99.90
66568;DHT22;53422;49.296;6.900;2023-04-03T03:27:15;5.20;99.90
66568;DHT22;53422;49.296;6.900;2023-04-03T03:29:42;5.30;99.90
66568;DHT22;53422;49.296;6.900;2023-04-03T03:32:08;5.40;99.90
66568;DHT22;53422;49.296;6.900;2023-04-03T03:34:33;5.30;99.90
66568;DHT22;53422;49.296;6.900;2023-04-03T03:36:59;5.40;99.90
66568;DHT22;53422;49.296;6.900;2023-04-03T03:39:26;5.40;99.90
66568;DHT22;53422;49.296;6.900;2023-04-03T03:41:52;5.40;99.90
66568;DHT22;53422;49.296;6.900;2023-04-03T03:44:19;5.30;99.90
66568;DHT22;53422;49.296;6.900;2023-04-03T03:46:45;5.40;99.90
66568;DHT22;53422;49.296;6.900;2023-04-03T03:49:11;5.40;99.90
66568;DHT22;53422;49.296;6.900;2023-04-03T03:51:37;5.30;99.90
66568;DHT22;53422;49.296;6.900;2023-04-03T03:54:03;5.20;99.90
66568;DHT22;53422;49.296;6.900;2023-04-03T03:56:29;5.20;99.90
66568;DHT22;53422;49.296;6.900;2023-04-03T03:58:55;5.10;99.90
66568;DHT22;53422;49.296;6.900;2023-04-03T04:01:22;5.10;99.90
66568;DHT22;53422;49.296;6.900;2023-04-03T04:03:48;5.00;99.90
66568;DHT22;53422;49.296;6.900;2023-04-03T04:06:14;4.90;99.90
66568;DHT22;53422;49.296;6.900;2023-04-03T04:08:39;4.80;99.90
66568;DHT22;53422;49.296;6.900;2023-04-03T04:11:05;4.80;99.90
66568;DHT22;53422;49.296;6.900;2023-04-03T04:13:31;4.80;99.90
66568;DHT22;53422;49.296;6.900;2023-04-03T04:15:56;4.80;99.90
66568;DHT22;53422;49.296;6.900;2023-04-03T04:18:22;4.60;99.90
66568;DHT22;53422;49.296;6.900;2023-04-03T04:20:49;4.60;99.90
66568;DHT22;53422;49.296;6.900;2023-04-03T04:23:16;4.60;99.90
66568;DHT22;53422;49.296;6.900;2023-04-03T04:25:45;4.50;99.90
66568;DHT22;53422;49.296;6.900;2023-04-03T04:28:11;4.60;99.90
66568;DHT22;53422;49.296;6.900;2023-04-03T04:30:37;4.50;99.90
66568;DHT22;53422;49.296;6.900;2023-04-03T04:33:02;4.50;99.90
66568;DHT22;53422;49.296;6.900;2023-04-03T04:35:28;4.60;99.90
66568;DHT22;53422;49.296;6.900;2023-04-03T04:37:54;4.60;99.90
66568;DHT22;53422;49.296;6.900;2023-04-03T04:40:20;4.70;99.90
66568;DHT22;53422;49.296;6.900;2023-04-03T04:42:46;4.60;99.90
66568;DHT22;53422;49.296;6.900;2023-04-03T04:45:11;4.50;99.90
66568;DHT22;53422;49.296;6.900;2023-04-03T04:47:37;4.50;99.90
66568;DHT22;53422;49.296;6.900;2023-04-03T04:50:03;4.60;99.90
66568;DHT22;53422;49.296;6.900;2023-04-03T04:52:29;4.60;99.90
66568;DHT22;53422;49.296;6.900;2023-04-03T04:54:55;4.50;99.90
66568;DHT22;53422;49.296;6.900;2023-04-03T04:57:20;4.50;99.90
66568;DHT22;53422;49.296;6.900;2023-04-03T04:59:46;4.60;99.90
66568;DHT22;53422;49.296;6.900;2023-04-03T05:02:12;4.50;99.90
66568;DHT22;53422;49.296;6.900;2023-04-03T05:04:37;4.60;99.90
66568;DHT22;53422;49.296;6.900;2023-04-03T05:07:03;4.40;99.90
66568;DHT22;53422;49.296;6.900;2023-04-03T05:09:29;4.40;99.90
66568;DHT22;53422;49.296;6.900;2023-04-03T05:11:55;4.20;99.90
66568;DHT22;53422;49.296;6.900;2023-04-03T05:14:21;4.30;99.90
66568;DHT22;53422;49.296;6.900;2023-04-03T05:16:47;4.40;99.90
66568;DHT22;53422;49.296;6.900;2023-04-03T05:19:13;4.30;99.90
66568;DHT22;53422;49.296;6.900;2023-04-03T05:21:38;4.30;99.90
66568;DHT22;53422;49.296;6.900;2023-04-03T05:24:04;4.30;99.90
66568;DHT22;53422;49.296;6.900;2023-04-03T05:26:30;4.20;99.90
66568;DHT22;53422;49.296;6.900;2023-04-03T05:28:56;4.10;99.90
66568;DHT22;53422;49.296;6.900;2023-04-03T05:31:22;4.10;99.90
66568;DHT22;53422;49.296;6.900;2023-04-03T05:33:48;4.20;99.90
66568;DHT22;53422;49.296;6.900;2023-04-03T05:36:14;4.20;99.90
66568;DHT22;53422;49.296;6.900;2023-04-03T05:38:40;4.10;99.90
66568;DHT22;53422;49.296;6.900;2023-04-03T05:41:06;4.10;99.90
66568;DHT22;53422;49.296;6.900;2023-04-03T05:43:31;4.10;99.90
66568;DHT22;53422;49.296;6.900;2023-04-03T05:45:59;4.10;99.90
66568;DHT22;53422;49.296;6.900;2023-04-03T05:48:24;4.20;99.90
66568;DHT22;53422;49.296;6.900;2023-04-03T05:50:51;4.20;99.90
66568;DHT22;53422;49.296;6.900;2023-04-03T05:53:28;4.10;99.90
66568;DHT22;53422;49.296;6.900;2023-04-03T05:55:54;4.20;99.90
66568;DHT22;53422;49.296;6.900;2023-04-03T05:58:20;4.20;99.90
66568;DHT22;53422;49.296;6.900;2023-04-03T06:00:46;4.40;99.90
66568;DHT22;53422;49.296;6.900;2023-04-03T06:03:11;4.40;99.90
66568;DHT22;53422;49.296;6.900;2023-04-03T06:05:37;4.50;99.90
66568;DHT22;53422;49.296;6.900;2023-04-03T06:08:02;4.50;99.90
66568;DHT22;53422;49.296;6.900;2023-04-03T06:10:28;4.50;99.90
66568;DHT22;53422;49.296;6.900;2023-04-03T06:12:54;4.60;99.90
66568;DHT22;53422;49.296;6.900;2023-04-03T06:15:20;4.60;99.90
66568;DHT22;53422;49.296;6.900;2023-04-03T06:17:46;4.50;99.90
66568;DHT22;53422;49.296;6.900;2023-04-03T06:20:12;4.40;99.90
66568;DHT22;53422;49.296;6.900;2023-04-03T06:22:38;4.50;99.90
66568;DHT22;53422;49.296;6.900;2023-04-03T06:25:04;4.40;99.90
66568;DHT22;53422;49.296;6.900;2023-04-03T06:27:30;4.40;99.90
66568;DHT22;53422;49.296;6.900;2023-04-03T06:29:56;4.50;99.90
66568;DHT22;53422;49.296;6.900;2023-04-03T06:32:21;4.40;99.90
66568;DHT22;53422;49.296;6.900;2023-04-03T06:34:47;4.40;99.90
66568;DHT22;53422;49.296;6.900;2023-04-03T06:37:23;4.20;99.90
66568;DHT22;53422;49.296;6.900;2023-04-03T06:39:51;4.30;99.90
66568;DHT22;53422;49.296;6.900;2023-04-03T06:42:17;4.30;99.90
66568;DHT22;53422;49.296;6.900;2023-04-03T06:44:43;4.30;99.90
66568;DHT22;53422;49.296;6.900;2023-04-03T06:47:12;4.40;99.90
66568;DHT22;53422;49.296;6.900;2023-04-03T06:49:38;4.30;99.90
66568;DHT22;53422;49.296;6.900;2023-04-03T06:52:04;4.30;99.90
66568;DHT22;53422;49.296;6.900;2023-04-03T06:54:30;4.40;99.90
66568;DHT22;53422;49.296;6.900;2023-04-03T06:56:56;4.40;99.90
66568;DHT22;53422;49.296;6.900;2023-04-03T06:59:22;4.50;99.90
66568;DHT22;53422;49.296;6.900;2023-04-03T07:01:47;4.40;99.90
66568;DHT22;53422;49.296;6.900;2023-04-03T07:04:14;4.40;99.90
66568;DHT22;53422;49.296;6.900;2023-04-03T07:06:40;4.40;99.90
66568;DHT22;53422;49.296;6.900;2023-04-03T07:09:07;4.40;99.90
66568;DHT22;53422;49.296;6.900;2023-04-03T07:11:33;4.40;99.90
66568;DHT22;53422;49.296;6.900;2023-04-03T07:13:58;4.40;99.90
66568;DHT22;53422;49.296;6.900;2023-04-03T07:16:24;4.40;99.90
66568;DHT22;53422;49.296;6.900;2023-04-03T07:18:50;4.50;99.90
66568;DHT22;53422;49.296;6.900;2023-04-03T07:21:16;4.50;99.90
66568;DHT22;53422;49.296;6.900;2023-04-03T07:23:41;4.50;99.90
66568;DHT22;53422;49.296;6.900;2023-04-03T07:26:07;4.50;99.90
66568;DHT22;53422;49.296;6.900;2023-04-03T07:28:33;4.50;99.90
66568;DHT22;53422;49.296;6.900;2023-04-03T07:31:05;4.50;99.90
66568;DHT22;53422;49.296;6.900;2023-04-03T07:33:32;4.60;99.90
66568;DHT22;53422;49.296;6.900;2023-04-03T07:35:58;4.60;99.90
66568;DHT22;53422;49.296;6.900;2023-04-03T07:38:24;4.70;99.90
66568;DHT22;53422;49.296;6.900;2023-04-03T07:40:50;4.70;99.90
66568;DHT22;53422;49.296;6.900;2023-04-03T07:43:18;4.80;99.90
66568;DHT22;53422;49.296;6.900;2023-04-03T07:45:44;4.80;99.90
66568;DHT22;53422;49.296;6.900;2023-04-03T07:48:11;4.90;99.90
66568;DHT22;53422;49.296;6.900;2023-04-03T07:50:37;4.90;99.90
66568;DHT22;53422;49.296;6.900;2023-04-03T07:53:04;4.90;99.90
66568;DHT22;53422;49.296;6.900;2023-04-03T07:55:32;5.00;99.90
66568;DHT22;53422;49.296;6.900;2023-04-03T07:57:57;5.00;99.90
66568;DHT22;53422;49.296;6.900;2023-04-03T08:00:23;5.00;99.90
66568;DHT22;53422;49.296;6.900;2023-04-03T08:02:49;5.10;99.90
66568;DHT22;53422;49.296;6.900;2023-04-03T08:05:19;5.10;99.90
66568;DHT22;53422;49.296;6.900;2023-04-03T08:07:45;5.20;99.90
66568;DHT22;53422;49.296;6.900;2023-04-03T08:10:11;5.30;99.90
66568;DHT22;53422;49.296;6.900;2023-04-03T08:12:36;5.30;99.90
66568;DHT22;53422;49.296;6.900;2023-04-03T08:15:03;5.30;99.90
66568;DHT22;53422;49.296;6.900;2023-04-03T08:17:29;5.40;99.90
66568;DHT22;53422;49.296;6.900;2023-04-03T08:19:55;5.40;99.90
66568;DHT22;53422;49.296;6.900;2023-04-03T08:22:20;5.50;99.90
66568;DHT22;53422;49.296;6.900;2023-04-03T08:24:46;5.50;99.90
66568;DHT22;53422;49.296;6.900;2023-04-03T08:27:12;5.60;99.90
66568;DHT22;53422;49.296;6.900;2023-04-03T08:29:37;5.70;99.90
66568;DHT22;53422;49.296;6.900;2023-04-03T08:32:04;5.70;99.90
66568;DHT22;53422;49.296;6.900;2023-04-03T08:34:30;5.80;99.90
66568;DHT22;53422;49.296;6.900;2023-04-03T08:37:00;5.90;99.90
66568;DHT22;53422;49.296;6.900;2023-04-03T08:39:26;6.00;99.90
66568;DHT22;53422;49.296;6.900;2023-04-03T08:41:52;6.10;99.90
66568;DHT22;53422;49.296;6.900;2023-04-03T08:49:45;6.40;99.90
66568;DHT22;53422;49.296;6.900;2023-04-03T08:52:18;6.50;99.90
66568;DHT22;53422;49.296;6.900;2023-04-03T08:55:12;6.50;99.90
66568;DHT22;53422;49.296;6.900;2023-04-03T08:57:41;6.50;99.60
66568;DHT22;53422;49.296;6.900;2023-04-03T09:00:24;6.50;99.90
66568;DHT22;53422;49.296;6.900;2023-04-03T09:02:55;6.60;99.90
66568;DHT22;53422;49.296;6.900;2023-04-03T09:05:29;6.70;98.70
66568;DHT22;53422;49.296;6.900;2023-04-03T09:08:04;6.60;95.60
66568;DHT22;53422;49.296;6.900;2023-04-03T09:10:33;6.70;99.90
66568;DHT22;53422;49.296;6.900;2023-04-03T09:13:49;6.80;95.50
66568;DHT22;53422;49.296;6.900;2023-04-03T09:15:57;6.90;94.70
66568;DHT22;53422;49.296;6.900;2023-04-03T09:18:32;7.00;96.40
66568;DHT22;53422;49.296;6.900;2023-04-03T09:21:17;7.00;95.30
66568;DHT22;53422;49.296;6.900;2023-04-03T09:23:52;7.10;95.10
66568;DHT22;53422;49.296;6.900;2023-04-03T09:26:47;7.00;98.00
66568;DHT22;53422;49.296;6.900;2023-04-03T09:29:22;7.30;95.80
66568;DHT22;53422;49.296;6.900;2023-04-03T09:31:50;7.20;93.70
66568;DHT22;53422;49.296;6.900;2023-04-03T09:34:26;7.30;92.40
66568;DHT22;53422;49.296;6.900;2023-04-03T09:36:57;7.30;93.30
66568;DHT22;53422;49.296;6.900;2023-04-03T09:39:25;7.30;94.80
66568;DHT22;53422;49.296;6.900;2023-04-03T09:42:04;7.30;90.40
66568;DHT22;53422;49.296;6.900;2023-04-03T09:44:38;7.40;92.70
66568;DHT22;53422;49.296;6.900;2023-04-03T09:47:42;7.50;91.80
66568;DHT22;53422;49.296;6.900;2023-04-03T09:50:19;7.50;91.60
66568;DHT22;53422;49.296;6.900;2023-04-03T09:52:48;7.50;87.90
66568;DHT22;53422;49.296;6.900;2023-04-03T09:55:16;7.40;87.70
66568;DHT22;53422;49.296;6.900;2023-04-03T09:57:43;7.40;91.00
66568;DHT22;53422;49.296;6.900;2023-04-03T10:00:38;7.40;87.80
66568;DHT22;53422;49.296;6.900;2023-04-03T10:03:08;7.50;88.80
66568;DHT22;53422;49.296;6.900;2023-04-03T10:05:48;7.30;90.90
66568;DHT22;53422;49.296;6.900;2023-04-03T10:10:44;7.50;87.80
66568;DHT22;53422;49.296;6.900;2023-04-03T10:13:13;7.40;85.60
66568;DHT22;53422;49.296;6.900;2023-04-03T10:15:46;7.30;89.20
66568;DHT22;53422;49.296;6.900;2023-04-03T10:26:39;7.20;85.60
66568;DHT22;53422;49.296;6.900;2023-04-03T10:34:35;7.40;85.30
66568;DHT22;53422;49.296;6.900;2023-04-03T10:37:10;7.40;88.30
66568;DHT22;53422;49.296;6.900;2023-04-03T10:58:43;7.50;84.50
66568;DHT22;53422;49.296;6.900;2023-04-03T11:01:13;7.50;87.80
66568;DHT22;53422;49.296;6.900;2023-04-03T11:03:43;7.60;83.70
66568;DHT22;53422;49.296;6.900;2023-04-03T11:06:13;7.50;84.90
66568;DHT22;53422;49.296;6.900;2023-04-03T11:11:32;7.60;80.60
66568;DHT22;53422;49.296;6.900;2023-04-03T11:20:00;7.80;79.40
66568;DHT22;53422;49.296;6.900;2023-04-03T11:22:37;7.90;76.90
66568;DHT22;53422;49.296;6.900;2023-04-03T11:25:08;7.80;76.80
66568;DHT22;53422;49.296;6.900;2023-04-03T11:30:34;7.80;75.20
66568;DHT22;53422;49.296;6.900;2023-04-03T11:36:28;7.90;73.80
66568;DHT22;53422;49.296;6.900;2023-04-03T11:38:59;8.00;73.80
66568;DHT22;53422;49.296;6.900;2023-04-03T11:41:31;8.20;70.80
66568;DHT22;53422;49.296;6.900;2023-04-03T11:44:33;8.20;70.70
66568;DHT22;53422;49.296;6.900;2023-04-03T11:46:59;8.10;68.60
66568;DHT22;53422;49.296;6.900;2023-04-03T11:56:26;8.20;69.70
66568;DHT22;53422;49.296;6.900;2023-04-03T11:58:16;8.10;72.20
66568;DHT22;53422;49.296;6.900;2023-04-03T12:05:48;8.10;69.50
66568;DHT22;53422;49.296;6.900;2023-04-03T12:08:24;8.00;70.20
66568;DHT22;53422;49.296;6.900;2023-04-03T12:11:31;8.10;68.60
66568;DHT22;53422;49.296;6.900;2023-04-03T12:16:30;8.20;73.40
66568;DHT22;53422;49.296;6.900;2023-04-03T12:27:02;8.10;71.10
66568;DHT22;53422;49.296;6.900;2023-04-03T12:35:07;8.10;71.30
66568;DHT22;53422;49.296;6.900;2023-04-03T12:48:30;7.60;67.20
66568;DHT22;53422;49.296;6.900;2023-04-03T12:50:57;7.70;66.50
66568;DHT22;53422;49.296;6.900;2023-04-03T12:53:42;7.80;68.70
66568;DHT22;53422;49.296;6.900;2023-04-03T12:56:29;7.90;66.50
66568;DHT22;53422;49.296;6.900;2023-04-03T12:59:30;7.80;65.30
66568;DHT22;53422;49.296;6.900;2023-04-03T13:01:58;8.00;67.20
66568;DHT22;53422;49.296;6.900;2023-04-03T13:04:25;7.80;62.60
66568;DHT22;53422;49.296;6.900;2023-04-03T13:06:51;7.70;65.80
66568;DHT22;53422;49.296;6.900;2023-04-03T13:11:50;7.70;65.30
66568;DHT22;53422;49.296;6.900;2023-04-03T13:14:25;8.00;67.90
66568;DHT22;53422;49.296;6.900;2023-04-03T13:17:03;8.10;68.30
66568;DHT22;53422;49.296;6.900;2023-04-03T13:19:30;8.00;67.10
66568;DHT22;53422;49.296;6.900;2023-04-03T13:24:52;8.30;65.70
66568;DHT22;53422;49.296;6.900;2023-04-03T13:27:18;8.40;67.10
66568;DHT22;53422;49.296;6.900;2023-04-03T13:29:53;8.40;67.20
66568;DHT22;53422;49.296;6.900;2023-04-03T13:32:24;8.30;66.50
66568;DHT22;53422;49.296;6.900;2023-04-03T13:34:50;8.30;67.60
66568;DHT22;53422;49.296;6.900;2023-04-03T13:37:33;8.30;66.80
66568;DHT22;53422;49.296;6.900;2023-04-03T13:40:11;8.30;66.50
66568;DHT22;53422;49.296;6.900;2023-04-03T13:42:39;8.30;67.60
66568;DHT22;53422;49.296;6.900;2023-04-03T13:45:29;8.30;65.70
66568;DHT22;53422;49.296;6.900;2023-04-03T13:48:19;8.30;66.80
66568;DHT22;53422;49.296;6.900;2023-04-03T13:50:58;8.40;65.90
66568;DHT22;53422;49.296;6.900;2023-04-03T13:53:26;8.50;64.60
66568;DHT22;53422;49.296;6.900;2023-04-03T13:56:19;8.40;61.50
66568;DHT22;53422;49.296;6.900;2023-04-03T13:59:22;8.50;64.80
66568;DHT22;53422;49.296;6.900;2023-04-03T14:01:49;8.50;64.90
66568;DHT22;53422;49.296;6.900;2023-04-03T14:06:41;8.30;61.70
66568;DHT22;53422;49.296;6.900;2023-04-03T14:09:07;8.20;60.00
66568;DHT22;53422;49.296;6.900;2023-04-03T14:11:34;8.20;62.60
66568;DHT22;53422;49.296;6.900;2023-04-03T14:14:11;8.30;62.90
66568;DHT22;53422;49.296;6.900;2023-04-03T14:16:41;8.40;63.10
66568;DHT22;53422;49.296;6.900;2023-04-03T14:19:17;8.40;62.30
66568;DHT22;53422;49.296;6.900;2023-04-03T14:21:43;8.40;63.70
66568;DHT22;53422;49.296;6.900;2023-04-03T14:24:09;8.30;61.50
66568;DHT22;53422;49.296;6.900;2023-04-03T14:26:37;8.10;61.40
66568;DHT22;53422;49.296;6.900;2023-04-03T14:29:03;8.10;62.80
66568;DHT22;53422;49.296;6.900;2023-04-03T14:31:28;8.20;62.90
66568;DHT22;53422;49.296;6.900;2023-04-03T14:33:54;8.20;62.60
66568;DHT22;53422;49.296;6.900;2023-04-03T14:36:25;8.20;62.40
66568;DHT22;53422;49.296;6.900;2023-04-03T14:38:52;8.00;62.00
66568;DHT22;53422;49.296;6.900;2023-04-03T14:41:20;8.00;60.90
66568;DHT22;53422;49.296;6.900;2023-04-03T14:43:46;8.00;60.40
66568;DHT22;53422;49.296;6.900;2023-04-03T14:46:20;8.10;60.90
66568;DHT22;53422;49.296;6.900;2023-04-03T14:48:47;8.10;61.80
66568;DHT22;53422;49.296;6.900;2023-04-03T14:51:14;8.10;59.80
66568;DHT22;53422;49.296;6.900;2023-04-03T14:53:42;8.10;58.80
66568;DHT22;53422;49.296;6.900;2023-04-03T14:56:27;8.10;59.80
66568;DHT22;53422;49.296;6.900;2023-04-03T14:58:58;8.20;61.10
66568;DHT22;53422;49.296;6.900;2023-04-03T15:01:26;8.20;62.70
66568;DHT22;53422;49.296;6.900;2023-04-03T15:03:52;8.10;62.30
66568;DHT22;53422;49.296;6.900;2023-04-03T15:06:18;8.10;61.90
66568;DHT22;53422;49.296;6.900;2023-04-03T15:08:45;8.10;63.30
66568;DHT22;53422;49.296;6.900;2023-04-03T15:11:12;8.20;62.70
66568;DHT22;53422;49.296;6.900;2023-04-03T15:13:38;8.10;60.70
66568;DHT22;53422;49.296;6.900;2023-04-03T15:16:05;8.00;58.90
66568;DHT22;53422;49.296;6.900;2023-04-03T15:18:37;8.00;60.40
66568;DHT22;53422;49.296;6.900;2023-04-03T15:21:03;8.00;60.40
66568;DHT22;53422;49.296;6.900;2023-04-03T15:23:29;8.10;60.80
66568;DHT22;53422;49.296;6.900;2023-04-03T15:25:56;8.10;60.90
66568;DHT22;53422;49.296;6.900;2023-04-03T15:28:33;8.10;61.90
66568;DHT22;53422;49.296;6.900;2023-04-03T15:30:59;7.90;62.40
66568;DHT22;53422;49.296;6.900;2023-04-03T15:33:26;8.00;62.30
66568;DHT22;53422;49.296;6.900;2023-04-03T15:35:52;8.00;61.30
66568;DHT22;53422;49.296;6.900;2023-04-03T15:38:17;7.90;60.30
66568;DHT22;53422;49.296;6.900;2023-04-03T15:40:43;7.90;61.00
66568;DHT22;53422;49.296;6.900;2023-04-03T15:43:09;8.00;62.50
66568;DHT22;53422;49.296;6.900;2023-04-03T15:45:36;8.00;63.60
66568;DHT22;53422;49.296;6.900;2023-04-03T15:48:03;8.00;63.60
66568;DHT22;53422;49.296;6.900;2023-04-03T15:50:31;7.90;64.70
66568;DHT22;53422;49.296;6.900;2023-04-03T15:52:56;7.90;65.20
66568;DHT22;53422;49.296;6.900;2023-04-03T15:55:28;7.80;63.90
66568;DHT22;53422;49.296;6.900;2023-04-03T15:57:55;7.70;62.00
66568;DHT22;53422;49.296;6.900;2023-04-03T16:00:22;7.70;62.80
66568;DHT22;53422;49.296;6.900;2023-04-03T16:02:52;7.60;61.30
66568;DHT22;53422;49.296;6.900;2023-04-03T16:05:19;7.60;62.30
66568;DHT22;53422;49.296;6.900;2023-04-03T16:07:45;7.60;61.90
66568;DHT22;53422;49.296;6.900;2023-04-03T16:10:13;7.60;61.20
66568;DHT22;53422;49.296;6.900;2023-04-03T16:12:39;7.70;62.20
66568;DHT22;53422;49.296;6.900;2023-04-03T16:15:06;7.60;61.60
66568;DHT22;53422;49.296;6.900;2023-04-03T16:17:33;7.60;62.60
66568;DHT22;53422;49.296;6.900;2023-04-03T16:19:59;7.70;62.80
66568;DHT22;53422;49.296;6.900;2023-04-03T16:22:26;7.60;61.80
66568;DHT22;53422;49.296;6.900;2023-04-03T16:24:53;7.60;61.60
66568;DHT22;53422;49.296;6.900;2023-04-03T16:27:19;7.60;62.10
66568;DHT22;53422;49.296;6.900;2023-04-03T16:29:45;7.50;63.10
66568;DHT22;53422;49.296;6.900;2023-04-03T16:32:11;7.40;62.10
66568;DHT22;53422;49.296;6.900;2023-04-03T16:34:37;7.40;63.10
66568;DHT22;53422;49.296;6.900;2023-04-03T16:37:03;7.40;63.60
66568;DHT22;53422;49.296;6.900;2023-04-03T16:39:28;7.40;64.40
66568;DHT22;53422;49.296;6.900;2023-04-03T16:41:54;7.40;63.70
66568;DHT22;53422;49.296;6.900;2023-04-03T16:44:20;7.30;63.60
66568;DHT22;53422;49.296;6.900;2023-04-03T16:46:46;7.30;63.20
66568;DHT22;53422;49.296;6.900;2023-04-03T16:49:11;7.20;63.40
66568;DHT22;53422;49.296;6.900;2023-04-03T16:51:37;7.20;62.90
66568;DHT22;53422;49.296;6.900;2023-04-03T16:54:03;7.20;63.80
66568;DHT22;53422;49.296;6.900;2023-04-03T16:56:29;7.20;63.80
66568;DHT22;53422;49.296;6.900;2023-04-03T16:58:54;7.20;63.10
66568;DHT22;53422;49.296;6.900;2023-04-03T17:01:22;7.20;63.80
66568;DHT22;53422;49.296;6.900;2023-04-03T17:03:48;7.10;64.50
66568;DHT22;53422;49.296;6.900;2023-04-03T17:06:19;7.10;63.30
66568;DHT22;53422;49.296;6.900;2023-04-03T17:08:47;7.10;63.30
66568;DHT22;53422;49.296;6.900;2023-04-03T17:11:14;7.10;61.70
66568;DHT22;53422;49.296;6.900;2023-04-03T17:13:40;7.00;62.10
66568;DHT22;53422;49.296;6.900;2023-04-03T17:16:09;6.90;62.40
66568;DHT22;53422;49.296;6.900;2023-04-03T17:18:36;6.90;63.20
66568;DHT22;53422;49.296;6.900;2023-04-03T17:21:03;6.90;63.40
66568;DHT22;53422;49.296;6.900;2023-04-03T17:23:29;6.90;63.00
66568;DHT22;53422;49.296;6.900;2023-04-03T17:25:55;6.80;62.60
66568;DHT22;53422;49.296;6.900;2023-04-03T17:28:21;6.80;63.10
66568;DHT22;53422;49.296;6.900;2023-04-03T17:30:52;6.80;63.90
66568;DHT22;53422;49.296;6.900;2023-04-03T17:33:18;6.80;64.20
66568;DHT22;53422;49.296;6.900;2023-04-03T17:35:43;6.80;64.40
66568;DHT22;53422;49.296;6.900;2023-04-03T17:38:09;6.70;65.10
66568;DHT22;53422;49.296;6.900;2023-04-03T17:40:35;6.70;64.60
66568;DHT22;53422;49.296;6.900;2023-04-03T17:43:00;6.70;63.30
66568;DHT22;53422;49.296;6.900;2023-04-03T17:45:26;6.60;63.10